sensor_id;sensor_type;location;lat;lon;timestamp;temperature;humidity
52669;DHT22;59898;52.786;6.892;2023-07-31T00:01:27;16.30;85.80
52669;DHT22;59898;52.786;6.892;2023-07-31T00:04:47;16.30;86.00
52669;DHT22;59898;52.786;6.892;2023-07-31T00:08:09;16.30;86.30
52669;DHT22;59898;52.786;6.892;2023-07-31T00:11:30;16.30;86.20
52669;DHT22;59898;52.786;6.892;2023-07-31T00:14:50;16.30;88.30
52669;DHT22;59898;52.786;6.892;2023-07-31T00:18:11;16.20;87.10
52669;DHT22;59898;52.786;6.892;2023-07-31T00:21:31;16.20;87.30
52669;DHT22;59898;52.786;6.892;2023-07-31T00:24:52;16.20;87.90
52669;DHT22;59898;52.786;6.892;2023-07-31T00:28:13;16.20;87.90
52669;DHT22;59898;52.786;6.892;2023-07-31T00:31:33;16.10;88.20
52669;DHT22;59898;52.786;6.892;2023-07-31T00:34:54;16.10;88.30
52669;DHT22;59898;52.786;6.892;2023-07-31T00:38:14;16.00;89.10
52669;DHT22;59898;52.786;6.892;2023-07-31T00:41:35;16.00;89.00
52669;DHT22;59898;52.786;6.892;2023-07-31T00:44:55;16.00;88.90
52669;DHT22;59898;52.786;6.892;2023-07-31T00:48:16;16.00;88.70
52669;DHT22;59898;52.786;6.892;2023-07-31T00:51:37;16.00;89.20
52669;DHT22;59898;52.786;6.892;2023-07-31T00:54:57;16.00;89.40
52669;DHT22;59898;52.786;6.892;2023-07-31T00:58:18;15.90;89.80
52669;DHT22;59898;52.786;6.892;2023-07-31T01:01:40;15.90;89.70
52669;DHT22;59898;52.786;6.892;2023-07-31T01:05:01;15.90;89.70
52669;DHT22;59898;52.786;6.892;2023-07-31T01:08:33;15.90;90.70
52669;DHT22;59898;52.786;6.892;2023-07-31T01:12:01;15.80;90.30
52669;DHT22;59898;52.786;6.892;2023-07-31T01:15:22;15.80;90.50
52669;DHT22;59898;52.786;6.892;2023-07-31T01:18:43;15.80;90.70
52669;DHT22;59898;52.786;6.892;2023-07-31T01:26:05;15.80;91.30
52669;DHT22;59898;52.786;6.892;2023-07-31T01:30:00;15.80;91.20
52669;DHT22;59898;52.786;6.892;2023-07-31T01:33:24;15.80;91.00
52669;DHT22;59898;52.786;6.892;2023-07-31T01:36:45;15.70;91.50
52669;DHT22;59898;52.786;6.892;2023-07-31T01:40:06;15.80;91.20
52669;DHT22;59898;52.786;6.892;2023-07-31T01:43:27;15.70;92.50
52669;DHT22;59898;52.786;6.892;2023-07-31T01:46:47;15.60;92.50
52669;DHT22;59898;52.786;6.892;2023-07-31T01:50:08;15.60;93.30
52669;DHT22;59898;52.786;6.892;2023-07-31T01:53:31;15.60;92.60
52669;DHT22;59898;52.786;6.892;2023-07-31T01:56:51;15.60;92.40
52669;DHT22;59898;52.786;6.892;2023-07-31T02:00:12;15.70;92.10
52669;DHT22;59898;52.786;6.892;2023-07-31T02:03:33;15.70;92.50
52669;DHT22;59898;52.786;6.892;2023-07-31T02:06:53;15.60;93.40
52669;DHT22;59898;52.786;6.892;2023-07-31T02:10:14;15.60;93.10
52669;DHT22;59898;52.786;6.892;2023-07-31T02:13:34;15.60;93.60
52669;DHT22;59898;52.786;6.892;2023-07-31T02:16:55;15.60;93.10
52669;DHT22;59898;52.786;6.892;2023-07-31T02:20:16;15.60;93.60
52669;DHT22;59898;52.786;6.892;2023-07-31T02:23:36;15.60;93.30
52669;DHT22;59898;52.786;6.892;2023-07-31T02:26:57;15.70;93.20
52669;DHT22;59898;52.786;6.892;2023-07-31T02:30:17;15.70;93.80
52669;DHT22;59898;52.786;6.892;2023-07-31T02:33:38;15.70;93.90
52669;DHT22;59898;52.786;6.892;2023-07-31T02:36:58;15.70;94.00
52669;DHT22;59898;52.786;6.892;2023-07-31T02:40:19;15.70;93.60
52669;DHT22;59898;52.786;6.892;2023-07-31T02:43:39;15.70;93.90
52669;DHT22;59898;52.786;6.892;2023-07-31T02:47:00;15.70;94.40
52669;DHT22;59898;52.786;6.892;2023-07-31T02:50:20;15.70;94.10
52669;DHT22;59898;52.786;6.892;2023-07-31T02:53:41;15.70;94.10
52669;DHT22;59898;52.786;6.892;2023-07-31T02:57:02;15.80;93.80
52669;DHT22;59898;52.786;6.892;2023-07-31T03:00:22;15.80;93.80
52669;DHT22;59898;52.786;6.892;2023-07-31T03:03:43;15.80;94.10
52669;DHT22;59898;52.786;6.892;2023-07-31T03:07:04;15.90;94.10
52669;DHT22;59898;52.786;6.892;2023-07-31T03:10:24;15.90;94.00
52669;DHT22;59898;52.786;6.892;2023-07-31T03:13:45;15.90;94.10
52669;DHT22;59898;52.786;6.892;2023-07-31T03:17:06;15.90;93.90
52669;DHT22;59898;52.786;6.892;2023-07-31T03:20:27;15.90;94.10
52669;DHT22;59898;52.786;6.892;2023-07-31T03:23:47;16.00;94.00
52669;DHT22;59898;52.786;6.892;2023-07-31T03:27:08;15.90;94.70
52669;DHT22;59898;52.786;6.892;2023-07-31T03:30:28;16.00;94.50
52669;DHT22;59898;52.786;6.892;2023-07-31T03:33:49;16.00;94.40
52669;DHT22;59898;52.786;6.892;2023-07-31T03:37:09;16.00;94.20
52669;DHT22;59898;52.786;6.892;2023-07-31T03:40:30;15.90;95.40
52669;DHT22;59898;52.786;6.892;2023-07-31T03:43:51;15.90;95.60
52669;DHT22;59898;52.786;6.892;2023-07-31T03:47:16;15.90;95.40
52669;DHT22;59898;52.786;6.892;2023-07-31T03:50:37;15.90;95.70
52669;DHT22;59898;52.786;6.892;2023-07-31T03:53:57;15.90;95.40
52669;DHT22;59898;52.786;6.892;2023-07-31T03:57:18;15.90;95.40
52669;DHT22;59898;52.786;6.892;2023-07-31T04:00:40;16.00;95.50
52669;DHT22;59898;52.786;6.892;2023-07-31T04:04:01;16.00;95.20
52669;DHT22;59898;52.786;6.892;2023-07-31T04:07:21;16.00;95.20
52669;DHT22;59898;52.786;6.892;2023-07-31T04:10:42;16.00;95.80
52669;DHT22;59898;52.786;6.892;2023-07-31T04:14:02;16.00;95.70
52669;DHT22;59898;52.786;6.892;2023-07-31T04:17:23;16.00;95.80
52669;DHT22;59898;52.786;6.892;2023-07-31T04:20:44;16.00;96.20
52669;DHT22;59898;52.786;6.892;2023-07-31T04:24:04;16.00;96.10
52669;DHT22;59898;52.786;6.892;2023-07-31T04:27:25;16.10;96.40
52669;DHT22;59898;52.786;6.892;2023-07-31T04:30:45;16.10;96.20
52669;DHT22;59898;52.786;6.892;2023-07-31T04:34:06;16.20;96.30
52669;DHT22;59898;52.786;6.892;2023-07-31T04:37:26;16.20;96.20
52669;DHT22;59898;52.786;6.892;2023-07-31T04:40:47;16.20;96.20
52669;DHT22;59898;52.786;6.892;2023-07-31T04:44:08;16.20;96.30
52669;DHT22;59898;52.786;6.892;2023-07-31T04:47:28;16.20;96.40
52669;DHT22;59898;52.786;6.892;2023-07-31T04:50:49;16.20;96.30
52669;DHT22;59898;52.786;6.892;2023-07-31T04:54:09;16.30;96.40
52669;DHT22;59898;52.786;6.892;2023-07-31T04:57:31;16.30;96.50
52669;DHT22;59898;52.786;6.892;2023-07-31T05:00:51;16.30;96.70
52669;DHT22;59898;52.786;6.892;2023-07-31T05:04:15;16.30;96.30
52669;DHT22;59898;52.786;6.892;2023-07-31T05:07:36;16.40;96.50
52669;DHT22;59898;52.786;6.892;2023-07-31T05:10:57;16.30;96.50
52669;DHT22;59898;52.786;6.892;2023-07-31T05:14:17;16.40;96.40
52669;DHT22;59898;52.786;6.892;2023-07-31T05:17:38;16.40;96.40
52669;DHT22;59898;52.786;6.892;2023-07-31T05:20:58;16.50;96.20
52669;DHT22;59898;52.786;6.892;2023-07-31T05:24:19;16.50;96.20
52669;DHT22;59898;52.786;6.892;2023-07-31T05:27:39;16.50;96.40
52669;DHT22;59898;52.786;6.892;2023-07-31T05:31:01;16.50;96.30
52669;DHT22;59898;52.786;6.892;2023-07-31T05:34:22;16.50;96.20
52669;DHT22;59898;52.786;6.892;2023-07-31T05:37:42;16.60;96.50
52669;DHT22;59898;52.786;6.892;2023-07-31T05:41:03;16.50;96.60
52669;DHT22;59898;52.786;6.892;2023-07-31T05:44:23;16.60;96.40
52669;DHT22;59898;52.786;6.892;2023-07-31T05:47:44;16.60;96.20
52669;DHT22;59898;52.786;6.892;2023-07-31T05:51:04;16.60;96.10
52669;DHT22;59898;52.786;6.892;2023-07-31T05:54:25;16.60;96.20
52669;DHT22;59898;52.786;6.892;2023-07-31T05:57:46;16.70;96.10
52669;DHT22;59898;52.786;6.892;2023-07-31T06:01:06;16.70;96.00
52669;DHT22;59898;52.786;6.892;2023-07-31T06:04:27;16.70;96.00
52669;DHT22;59898;52.786;6.892;2023-07-31T06:07:48;16.70;96.00
52669;DHT22;59898;52.786;6.892;2023-07-31T06:11:09;16.70;96.00
52669;DHT22;59898;52.786;6.892;2023-07-31T06:14:29;16.70;95.80
52669;DHT22;59898;52.786;6.892;2023-07-31T06:17:50;16.70;95.80
52669;DHT22;59898;52.786;6.892;2023-07-31T06:21:10;16.70;95.80
52669;DHT22;59898;52.786;6.892;2023-07-31T06:24:31;16.70;95.80
52669;DHT22;59898;52.786;6.892;2023-07-31T06:27:52;16.70;95.70
52669;DHT22;59898;52.786;6.892;2023-07-31T06:31:12;16.70;95.50
52669;DHT22;59898;52.786;6.892;2023-07-31T06:34:33;16.70;95.40
52669;DHT22;59898;52.786;6.892;2023-07-31T06:37:53;16.70;95.70
52669;DHT22;59898;52.786;6.892;2023-07-31T06:41:14;16.70;95.50
52669;DHT22;59898;52.786;6.892;2023-07-31T06:44:34;16.70;95.60
52669;DHT22;59898;52.786;6.892;2023-07-31T06:47:55;16.70;95.40
52669;DHT22;59898;52.786;6.892;2023-07-31T06:51:16;16.70;95.40
52669;DHT22;59898;52.786;6.892;2023-07-31T06:54:36;16.70;95.40
52669;DHT22;59898;52.786;6.892;2023-07-31T06:57:57;16.80;95.20
52669;DHT22;59898;52.786;6.892;2023-07-31T07:01:17;16.70;95.00
52669;DHT22;59898;52.786;6.892;2023-07-31T07:04:38;16.70;94.90
52669;DHT22;59898;52.786;6.892;2023-07-31T07:07:59;16.70;94.90
52669;DHT22;59898;52.786;6.892;2023-07-31T07:11:19;16.70;94.90
52669;DHT22;59898;52.786;6.892;2023-07-31T07:14:40;16.70;94.90
52669;DHT22;59898;52.786;6.892;2023-07-31T07:18:00;16.70;95.30
52669;DHT22;59898;52.786;6.892;2023-07-31T07:21:21;16.60;95.50
52669;DHT22;59898;52.786;6.892;2023-07-31T07:24:41;16.60;95.60
52669;DHT22;59898;52.786;6.892;2023-07-31T07:28:02;16.60;95.50
52669;DHT22;59898;52.786;6.892;2023-07-31T07:31:23;16.60;96.30
52669;DHT22;59898;52.786;6.892;2023-07-31T07:34:43;16.50;96.40
52669;DHT22;59898;52.786;6.892;2023-07-31T07:38:04;16.50;96.30
52669;DHT22;59898;52.786;6.892;2023-07-31T07:41:24;16.50;96.30
52669;DHT22;59898;52.786;6.892;2023-07-31T07:44:45;16.50;96.40
52669;DHT22;59898;52.786;6.892;2023-07-31T07:48:05;16.50;96.40
52669;DHT22;59898;52.786;6.892;2023-07-31T07:51:26;16.50;96.10
52669;DHT22;59898;52.786;6.892;2023-07-31T07:54:47;16.50;96.30
52669;DHT22;59898;52.786;6.892;2023-07-31T07:58:08;16.50;96.00
52669;DHT22;59898;52.786;6.892;2023-07-31T08:01:28;16.60;96.00
52669;DHT22;59898;52.786;6.892;2023-07-31T08:04:49;16.60;95.80
52669;DHT22;59898;52.786;6.892;2023-07-31T08:08:15;16.60;96.00
52669;DHT22;59898;52.786;6.892;2023-07-31T08:11:36;16.60;96.10
52669;DHT22;59898;52.786;6.892;2023-07-31T08:14:57;16.60;96.10
52669;DHT22;59898;52.786;6.892;2023-07-31T08:18:17;16.60;95.90
52669;DHT22;59898;52.786;6.892;2023-07-31T08:21:38;16.70;95.90
52669;DHT22;59898;52.786;6.892;2023-07-31T08:24:58;16.70;95.80
52669;DHT22;59898;52.786;6.892;2023-07-31T08:28:19;16.70;95.80
52669;DHT22;59898;52.786;6.892;2023-07-31T08:31:40;16.70;95.90
52669;DHT22;59898;52.786;6.892;2023-07-31T08:35:00;16.70;96.20
52669;DHT22;59898;52.786;6.892;2023-07-31T08:38:21;16.80;96.10
52669;DHT22;59898;52.786;6.892;2023-07-31T08:41:41;16.80;95.90
52669;DHT22;59898;52.786;6.892;2023-07-31T08:45:03;16.70;96.30
52669;DHT22;59898;52.786;6.892;2023-07-31T08:48:24;16.70;96.80
52669;DHT22;59898;52.786;6.892;2023-07-31T08:51:46;16.70;96.40
52669;DHT22;59898;52.786;6.892;2023-07-31T08:55:10;16.80;96.50
52669;DHT22;59898;52.786;6.892;2023-07-31T08:58:32;16.90;96.40
52669;DHT22;59898;52.786;6.892;2023-07-31T09:01:53;16.90;96.70
52669;DHT22;59898;52.786;6.892;2023-07-31T09:05:16;17.00;96.60
52669;DHT22;59898;52.786;6.892;2023-07-31T09:08:41;17.00;96.40
52669;DHT22;59898;52.786;6.892;2023-07-31T09:12:02;17.00;96.40
52669;DHT22;59898;52.786;6.892;2023-07-31T09:15:24;17.10;97.00
52669;DHT22;59898;52.786;6.892;2023-07-31T09:18:54;17.10;96.70
52669;DHT22;59898;52.786;6.892;2023-07-31T09:22:31;17.20;97.00
52669;DHT22;59898;52.786;6.892;2023-07-31T09:25:53;17.30;96.80
52669;DHT22;59898;52.786;6.892;2023-07-31T09:29:19;17.30;96.70
52669;DHT22;59898;52.786;6.892;2023-07-31T09:32:40;17.30;97.10
52669;DHT22;59898;52.786;6.892;2023-07-31T09:36:01;17.40;96.90
52669;DHT22;59898;52.786;6.892;2023-07-31T09:39:21;17.40;96.90
52669;DHT22;59898;52.786;6.892;2023-07-31T09:42:42;17.40;96.80
52669;DHT22;59898;52.786;6.892;2023-07-31T09:46:02;17.40;97.00
52669;DHT22;59898;52.786;6.892;2023-07-31T09:49:25;17.50;96.90
52669;DHT22;59898;52.786;6.892;2023-07-31T09:52:45;17.50;97.20
52669;DHT22;59898;52.786;6.892;2023-07-31T09:56:06;17.50;97.20
52669;DHT22;59898;52.786;6.892;2023-07-31T09:59:27;17.60;97.20
52669;DHT22;59898;52.786;6.892;2023-07-31T10:02:48;17.60;97.00
52669;DHT22;59898;52.786;6.892;2023-07-31T10:06:09;17.60;97.10
52669;DHT22;59898;52.786;6.892;2023-07-31T10:09:31;17.60;97.00
52669;DHT22;59898;52.786;6.892;2023-07-31T10:12:56;17.60;97.20
52669;DHT22;59898;52.786;6.892;2023-07-31T10:16:17;17.70;97.20
52669;DHT22;59898;52.786;6.892;2023-07-31T10:19:39;17.70;97.20
52669;DHT22;59898;52.786;6.892;2023-07-31T10:23:00;17.70;97.10
52669;DHT22;59898;52.786;6.892;2023-07-31T10:26:23;17.80;97.50
52669;DHT22;59898;52.786;6.892;2023-07-31T10:29:46;17.80;97.40
52669;DHT22;59898;52.786;6.892;2023-07-31T10:33:08;17.80;97.20
52669;DHT22;59898;52.786;6.892;2023-07-31T10:36:29;17.90;97.90
52669;DHT22;59898;52.786;6.892;2023-07-31T10:40:00;17.90;97.40
52669;DHT22;59898;52.786;6.892;2023-07-31T10:43:24;18.00;97.20
52669;DHT22;59898;52.786;6.892;2023-07-31T10:46:48;18.00;97.30
52669;DHT22;59898;52.786;6.892;2023-07-31T10:50:19;18.10;97.00
52669;DHT22;59898;52.786;6.892;2023-07-31T10:53:40;18.10;97.00
52669;DHT22;59898;52.786;6.892;2023-07-31T10:57:02;18.10;96.90
52669;DHT22;59898;52.786;6.892;2023-07-31T11:00:29;18.10;96.90
52669;DHT22;59898;52.786;6.892;2023-07-31T11:03:50;18.20;97.20
52669;DHT22;59898;52.786;6.892;2023-07-31T11:07:14;18.20;97.00
52669;DHT22;59898;52.786;6.892;2023-07-31T11:10:34;18.30;96.80
52669;DHT22;59898;52.786;6.892;2023-07-31T11:13:55;18.50;96.70
52669;DHT22;59898;52.786;6.892;2023-07-31T11:17:16;18.50;96.50
52669;DHT22;59898;52.786;6.892;2023-07-31T11:20:37;18.60;96.50
52669;DHT22;59898;52.786;6.892;2023-07-31T11:23:59;18.70;96.30
52669;DHT22;59898;52.786;6.892;2023-07-31T11:27:19;18.80;96.00
52669;DHT22;59898;52.786;6.892;2023-07-31T11:30:41;18.80;95.80
52669;DHT22;59898;52.786;6.892;2023-07-31T11:34:06;18.70;95.90
52669;DHT22;59898;52.786;6.892;2023-07-31T11:37:42;18.70;96.00
52669;DHT22;59898;52.786;6.892;2023-07-31T11:41:04;18.70;96.30
52669;DHT22;59898;52.786;6.892;2023-07-31T11:44:25;18.70;96.30
52669;DHT22;59898;52.786;6.892;2023-07-31T11:47:46;18.60;96.60
52669;DHT22;59898;52.786;6.892;2023-07-31T11:51:09;18.70;96.70
52669;DHT22;59898;52.786;6.892;2023-07-31T11:54:31;18.70;96.40
52669;DHT22;59898;52.786;6.892;2023-07-31T11:57:52;18.70;96.70
52669;DHT22;59898;52.786;6.892;2023-07-31T12:01:15;18.70;96.80
52669;DHT22;59898;52.786;6.892;2023-07-31T12:04:36;18.70;96.70
52669;DHT22;59898;52.786;6.892;2023-07-31T12:07:57;18.70;96.70
52669;DHT22;59898;52.786;6.892;2023-07-31T12:11:18;18.70;96.90
52669;DHT22;59898;52.786;6.892;2023-07-31T12:14:41;18.60;96.70
52669;DHT22;59898;52.786;6.892;2023-07-31T12:18:07;18.60;97.20
52669;DHT22;59898;52.786;6.892;2023-07-31T12:21:28;18.60;97.20
52669;DHT22;59898;52.786;6.892;2023-07-31T12:24:48;18.50;97.30
52669;DHT22;59898;52.786;6.892;2023-07-31T12:28:09;18.60;97.60
52669;DHT22;59898;52.786;6.892;2023-07-31T12:31:34;18.60;97.60
52669;DHT22;59898;52.786;6.892;2023-07-31T12:34:54;18.60;97.70
52669;DHT22;59898;52.786;6.892;2023-07-31T12:38:15;18.70;97.60
52669;DHT22;59898;52.786;6.892;2023-07-31T12:41:35;18.70;97.80
52669;DHT22;59898;52.786;6.892;2023-07-31T12:44:56;18.80;97.50
52669;DHT22;59898;52.786;6.892;2023-07-31T12:48:17;18.80;97.30
52669;DHT22;59898;52.786;6.892;2023-07-31T12:51:38;18.80;97.00
52669;DHT22;59898;52.786;6.892;2023-07-31T12:54:58;18.90;97.00
52669;DHT22;59898;52.786;6.892;2023-07-31T12:58:19;18.90;96.70
52669;DHT22;59898;52.786;6.892;2023-07-31T13:01:39;18.90;96.80
52669;DHT22;59898;52.786;6.892;2023-07-31T13:05:00;18.90;96.60
52669;DHT22;59898;52.786;6.892;2023-07-31T13:08:21;19.00;96.60
52669;DHT22;59898;52.786;6.892;2023-07-31T13:11:41;19.20;96.60
52669;DHT22;59898;52.786;6.892;2023-07-31T13:15:02;19.50;96.20
52669;DHT22;59898;52.786;6.892;2023-07-31T13:18:23;19.70;95.10
52669;DHT22;59898;52.786;6.892;2023-07-31T13:21:44;19.70;94.20
52669;DHT22;59898;52.786;6.892;2023-07-31T13:25:05;19.70;94.00
52669;DHT22;59898;52.786;6.892;2023-07-31T13:28:25;19.70;94.10
52669;DHT22;59898;52.786;6.892;2023-07-31T13:31:46;19.60;94.20
52669;DHT22;59898;52.786;6.892;2023-07-31T13:35:07;19.60;94.20
52669;DHT22;59898;52.786;6.892;2023-07-31T13:38:28;19.70;94.20
52669;DHT22;59898;52.786;6.892;2023-07-31T13:41:49;19.70;94.00
52669;DHT22;59898;52.786;6.892;2023-07-31T13:45:09;19.80;93.80
52669;DHT22;59898;52.786;6.892;2023-07-31T13:48:30;19.80;93.70
52669;DHT22;59898;52.786;6.892;2023-07-31T13:51:50;19.80;93.50
52669;DHT22;59898;52.786;6.892;2023-07-31T13:55:11;19.80;93.40
52669;DHT22;59898;52.786;6.892;2023-07-31T13:58:32;19.80;93.20
52669;DHT22;59898;52.786;6.892;2023-07-31T14:01:53;19.90;92.80
52669;DHT22;59898;52.786;6.892;2023-07-31T14:05:14;19.90;92.40
52669;DHT22;59898;52.786;6.892;2023-07-31T14:08:34;19.70;92.80
52669;DHT22;59898;52.786;6.892;2023-07-31T14:11:55;19.70;93.10
52669;DHT22;59898;52.786;6.892;2023-07-31T14:15:15;19.60;93.60
52669;DHT22;59898;52.786;6.892;2023-07-31T14:18:36;19.70;93.60
52669;DHT22;59898;52.786;6.892;2023-07-31T14:21:58;19.70;93.20
52669;DHT22;59898;52.786;6.892;2023-07-31T14:25:20;19.70;93.20
52669;DHT22;59898;52.786;6.892;2023-07-31T14:28:40;19.80;92.90
52669;DHT22;59898;52.786;6.892;2023-07-31T14:32:03;19.70;92.70
52669;DHT22;59898;52.786;6.892;2023-07-31T14:35:24;19.70;92.60
52669;DHT22;59898;52.786;6.892;2023-07-31T14:38:44;19.70;92.30
52669;DHT22;59898;52.786;6.892;2023-07-31T14:42:06;19.70;92.40
52669;DHT22;59898;52.786;6.892;2023-07-31T14:45:27;19.80;92.20
52669;DHT22;59898;52.786;6.892;2023-07-31T14:48:47;19.90;91.70
52669;DHT22;59898;52.786;6.892;2023-07-31T14:52:08;19.90;91.50
52669;DHT22;59898;52.786;6.892;2023-07-31T14:55:28;20.00;90.80
52669;DHT22;59898;52.786;6.892;2023-07-31T14:58:49;20.00;90.70
52669;DHT22;59898;52.786;6.892;2023-07-31T15:02:10;19.90;90.60
52669;DHT22;59898;52.786;6.892;2023-07-31T15:05:30;19.90;90.90
52669;DHT22;59898;52.786;6.892;2023-07-31T15:08:51;20.00;91.00
52669;DHT22;59898;52.786;6.892;2023-07-31T15:12:11;20.00;91.00
52669;DHT22;59898;52.786;6.892;2023-07-31T15:15:32;20.00;91.20
52669;DHT22;59898;52.786;6.892;2023-07-31T15:18:52;20.00;90.80
52669;DHT22;59898;52.786;6.892;2023-07-31T15:22:13;19.90;90.80
52669;DHT22;59898;52.786;6.892;2023-07-31T15:25:34;19.90;91.10
52669;DHT22;59898;52.786;6.892;2023-07-31T15:29:03;19.90;91.10
52669;DHT22;59898;52.786;6.892;2023-07-31T15:32:28;19.80;91.10
52669;DHT22;59898;52.786;6.892;2023-07-31T15:35:49;19.80;91.20
52669;DHT22;59898;52.786;6.892;2023-07-31T15:39:10;19.70;91.30
52669;DHT22;59898;52.786;6.892;2023-07-31T15:42:30;19.70;91.30
52669;DHT22;59898;52.786;6.892;2023-07-31T15:45:54;19.70;91.30
52669;DHT22;59898;52.786;6.892;2023-07-31T15:49:14;19.70;91.10
52669;DHT22;59898;52.786;6.892;2023-07-31T15:52:35;19.60;91.20
52669;DHT22;59898;52.786;6.892;2023-07-31T15:55:58;19.50;91.30
52669;DHT22;59898;52.786;6.892;2023-07-31T15:59:18;19.40;91.70
52669;DHT22;59898;52.786;6.892;2023-07-31T16:02:41;19.30;92.10
52669;DHT22;59898;52.786;6.892;2023-07-31T16:06:02;19.30;92.40
52669;DHT22;59898;52.786;6.892;2023-07-31T16:09:23;19.20;92.50
52669;DHT22;59898;52.786;6.892;2023-07-31T16:12:43;19.10;92.90
52669;DHT22;59898;52.786;6.892;2023-07-31T16:16:04;19.10;93.10
52669;DHT22;59898;52.786;6.892;2023-07-31T16:19:24;19.10;93.30
52669;DHT22;59898;52.786;6.892;2023-07-31T16:22:45;19.00;93.60
52669;DHT22;59898;52.786;6.892;2023-07-31T16:26:06;19.00;93.70
52669;DHT22;59898;52.786;6.892;2023-07-31T16:29:26;19.00;93.80
52669;DHT22;59898;52.786;6.892;2023-07-31T16:32:47;19.00;94.40
52669;DHT22;59898;52.786;6.892;2023-07-31T16:36:09;18.90;94.30
52669;DHT22;59898;52.786;6.892;2023-07-31T16:39:30;18.80;94.80
52669;DHT22;59898;52.786;6.892;2023-07-31T16:42:56;18.80;94.50
52669;DHT22;59898;52.786;6.892;2023-07-31T16:46:16;18.70;94.70
52669;DHT22;59898;52.786;6.892;2023-07-31T16:49:37;18.70;94.80
52669;DHT22;59898;52.786;6.892;2023-07-31T16:52:57;18.70;95.30
52669;DHT22;59898;52.786;6.892;2023-07-31T16:56:18;18.60;96.10
52669;DHT22;59898;52.786;6.892;2023-07-31T16:59:39;18.60;95.90
52669;DHT22;59898;52.786;6.892;2023-07-31T17:02:59;18.60;96.20
52669;DHT22;59898;52.786;6.892;2023-07-31T17:06:20;18.50;96.50
52669;DHT22;59898;52.786;6.892;2023-07-31T17:09:40;18.40;96.30
52669;DHT22;59898;52.786;6.892;2023-07-31T17:13:01;18.40;96.80
52669;DHT22;59898;52.786;6.892;2023-07-31T17:16:22;18.30;96.80
52669;DHT22;59898;52.786;6.892;2023-07-31T17:19:42;18.30;96.80
52669;DHT22;59898;52.786;6.892;2023-07-31T17:23:03;18.30;96.40
52669;DHT22;59898;52.786;6.892;2023-07-31T17:26:23;18.20;97.20
52669;DHT22;59898;52.786;6.892;2023-07-31T17:29:44;18.20;97.00
52669;DHT22;59898;52.786;6.892;2023-07-31T17:33:05;18.20;97.10
52669;DHT22;59898;52.786;6.892;2023-07-31T17:36:25;18.20;97.00
52669;DHT22;59898;52.786;6.892;2023-07-31T17:39:46;18.10;97.30
52669;DHT22;59898;52.786;6.892;2023-07-31T17:43:07;18.20;97.10
52669;DHT22;59898;52.786;6.892;2023-07-31T17:46:28;18.10;97.10
52669;DHT22;59898;52.786;6.892;2023-07-31T17:49:48;18.10;97.20
52669;DHT22;59898;52.786;6.892;2023-07-31T17:53:09;18.20;97.00
52669;DHT22;59898;52.786;6.892;2023-07-31T17:56:29;18.10;97.00
52669;DHT22;59898;52.786;6.892;2023-07-31T17:59:52;18.10;97.10
52669;DHT22;59898;52.786;6.892;2023-07-31T18:03:13;18.00;97.20
52669;DHT22;59898;52.786;6.892;2023-07-31T18:06:33;17.90;97.50
52669;DHT22;59898;52.786;6.892;2023-07-31T18:09:54;18.00;97.50
52669;DHT22;59898;52.786;6.892;2023-07-31T18:13:15;18.00;97.30
52669;DHT22;59898;52.786;6.892;2023-07-31T18:16:36;18.00;97.30
52669;DHT22;59898;52.786;6.892;2023-07-31T18:19:57;18.00;97.20
52669;DHT22;59898;52.786;6.892;2023-07-31T18:23:17;17.90;97.30
52669;DHT22;59898;52.786;6.892;2023-07-31T18:26:40;17.90;97.20
52669;DHT22;59898;52.786;6.892;2023-07-31T18:30:01;17.90;97.10
52669;DHT22;59898;52.786;6.892;2023-07-31T18:33:22;17.90;97.10
52669;DHT22;59898;52.786;6.892;2023-07-31T18:36:42;17.80;97.10
52669;DHT22;59898;52.786;6.892;2023-07-31T18:40:04;17.80;97.20
52669;DHT22;59898;52.786;6.892;2023-07-31T18:43:25;17.80;97.20
52669;DHT22;59898;52.786;6.892;2023-07-31T18:46:45;17.80;97.10
52669;DHT22;59898;52.786;6.892;2023-07-31T18:50:06;17.70;97.20
52669;DHT22;59898;52.786;6.892;2023-07-31T18:53:27;17.70;97.30
52669;DHT22;59898;52.786;6.892;2023-07-31T18:56:47;17.70;97.40
52669;DHT22;59898;52.786;6.892;2023-07-31T19:00:09;17.70;97.30
52669;DHT22;59898;52.786;6.892;2023-07-31T19:03:30;17.70;97.30
52669;DHT22;59898;52.786;6.892;2023-07-31T19:06:52;17.70;97.20
52669;DHT22;59898;52.786;6.892;2023-07-31T19:10:12;17.70;97.30
52669;DHT22;59898;52.786;6.892;2023-07-31T19:13:33;17.70;97.30
52669;DHT22;59898;52.786;6.892;2023-07-31T19:16:53;17.70;97.30
52669;DHT22;59898;52.786;6.892;2023-07-31T19:20:14;17.70;97.20
52669;DHT22;59898;52.786;6.892;2023-07-31T19:23:36;17.70;97.20
52669;DHT22;59898;52.786;6.892;2023-07-31T19:26:56;17.60;97.20
52669;DHT22;59898;52.786;6.892;2023-07-31T19:30:17;17.60;97.20
52669;DHT22;59898;52.786;6.892;2023-07-31T19:33:38;17.60;97.60
52669;DHT22;59898;52.786;6.892;2023-07-31T19:36:58;17.50;97.30
52669;DHT22;59898;52.786;6.892;2023-07-31T19:40:19;17.50;97.60
52669;DHT22;59898;52.786;6.892;2023-07-31T19:43:43;17.50;97.50
52669;DHT22;59898;52.786;6.892;2023-07-31T19:47:07;17.50;97.70
52669;DHT22;59898;52.786;6.892;2023-07-31T19:50:27;17.50;98.10
52669;DHT22;59898;52.786;6.892;2023-07-31T19:53:48;17.40;97.70
52669;DHT22;59898;52.786;6.892;2023-07-31T19:57:08;17.40;97.80
52669;DHT22;59898;52.786;6.892;2023-07-31T20:00:29;17.50;98.10
52669;DHT22;59898;52.786;6.892;2023-07-31T20:03:49;17.50;98.10
52669;DHT22;59898;52.786;6.892;2023-07-31T20:07:12;17.50;98.20
52669;DHT22;59898;52.786;6.892;2023-07-31T20:10:33;17.50;98.10
52669;DHT22;59898;52.786;6.892;2023-07-31T20:13:54;17.50;98.30
52669;DHT22;59898;52.786;6.892;2023-07-31T20:17:14;17.50;98.30
52669;DHT22;59898;52.786;6.892;2023-07-31T20:20:35;17.50;98.30
52669;DHT22;59898;52.786;6.892;2023-07-31T20:23:55;17.60;98.40
52669;DHT22;59898;52.786;6.892;2023-07-31T20:27:20;17.60;98.40
52669;DHT22;59898;52.786;6.892;2023-07-31T20:30:43;17.60;98.20
52669;DHT22;59898;52.786;6.892;2023-07-31T20:34:04;17.60;98.30
52669;DHT22;59898;52.786;6.892;2023-07-31T20:37:31;17.60;98.20
52669;DHT22;59898;52.786;6.892;2023-07-31T20:40:52;17.60;98.30
52669;DHT22;59898;52.786;6.892;2023-07-31T20:44:12;17.60;98.40
52669;DHT22;59898;52.786;6.892;2023-07-31T20:47:33;17.60;98.40
52669;DHT22;59898;52.786;6.892;2023-07-31T20:50:53;17.60;98.30
52669;DHT22;59898;52.786;6.892;2023-07-31T20:54:14;17.60;98.40
52669;DHT22;59898;52.786;6.892;2023-07-31T20:57:35;17.50;98.60
52669;DHT22;59898;52.786;6.892;2023-07-31T21:00:55;17.60;98.60
52669;DHT22;59898;52.786;6.892;2023-07-31T21:04:16;17.60;98.50
52669;DHT22;59898;52.786;6.892;2023-07-31T21:07:38;17.60;98.50
52669;DHT22;59898;52.786;6.892;2023-07-31T21:10:59;17.60;98.50
52669;DHT22;59898;52.786;6.892;2023-07-31T21:14:19;17.60;98.50